Time;durP1;ratioP1;P1;durP2;ratioP2;P2;SDS_P1;SDS_P2;PMS_P1;PMS_P2;Temp;Humidity;BMP_temperature;BMP_pressure;BME280_temperature;BME280_humidity;BME280_pressure;Samples;Min_cycle;Max_cycle;Signal;HPM_P1;HPM_P2
2022/09/05 00:00:03;;;;;;;0.50;0.30;;;19.70;99.90;;;;;;5035103;28;20549;-76
2022/09/05 00:02:34;;;;;;;0.50;0.30;;;19.80;99.90;;;;;;5034085;28;20434;-79
2022/09/05 00:05:25;;;;;;;0.50;0.30;;;19.70;99.90;;;;;;5034229;28;20498;-76
2022/09/05 00:08:00;;;;;;;0.50;0.30;;;19.70;99.90;;;;;;5034714;28;20516;-80
2022/09/05 00:10:36;;;;;;;0.50;0.30;;;19.70;99.90;;;;;;5034452;28;20513;-77
2022/09/05 00:13:05;;;;;;;0.50;0.30;;;19.70;99.90;;;;;;5034659;28;20513;-78
2022/09/05 00:15:43;;;;;;;0.50;0.30;;;19.70;99.90;;;;;;5033790;28;20541;-78
2022/09/05 00:18:34;;;;;;;0.50;0.30;;;19.70;99.90;;;;;;5034777;28;20453;-77
2022/09/05 00:21:15;;;;;;;0.50;0.30;;;19.70;99.90;;;;;;5034469;28;20911;-79
2022/09/05 00:23:55;;;;;;;0.50;0.30;;;19.60;99.90;;;;;;5034614;28;20518;-79
2022/09/05 00:26:35;;;;;;;0.50;0.30;;;19.60;99.90;;;;;;5034655;28;20529;-78
2022/09/05 00:29:16;;;;;;;0.50;0.30;;;19.60;99.90;;;;;;5034416;28;20442;-78
2022/09/05 00:31:53;;;;;;;0.50;0.30;;;19.60;99.90;;;;;;5034579;28;20939;-78
2022/09/05 00:34:36;;;;;;;0.50;0.40;;;19.60;99.90;;;;;;5034490;28;20908;-77
2022/09/05 00:37:08;;;;;;;0.50;0.30;;;19.60;99.90;;;;;;5034019;28;20520;-77
2022/09/05 00:39:38;;;;;;;0.50;0.30;;;19.60;99.90;;;;;;5034049;28;20497;-77
2022/09/05 00:42:09;;;;;;;0.50;0.30;;;19.60;99.90;;;;;;5033827;28;20446;-79
2022/09/05 00:44:46;;;;;;;0.50;0.30;;;19.50;99.90;;;;;;5032681;28;20934;-80
2022/09/05 00:47:23;;;;;;;0.50;0.30;;;19.40;99.90;;;;;;5032407;28;20939;-79
2022/09/05 00:49:58;;;;;;;0.50;0.40;;;19.40;99.90;;;;;;5031567;28;20536;-79
2022/09/05 00:52:34;;;;;;;0.50;0.40;;;19.40;99.90;;;;;;5032296;28;20442;-78
2022/09/05 00:55:16;;;;;;;0.50;0.40;;;19.30;99.90;;;;;;5032007;28;20540;-78
2022/09/05 00:57:58;;;;;;;0.50;0.30;;;19.30;99.90;;;;;;5032250;28;20474;-78
2022/09/05 01:00:35;;;;;;;0.50;0.33;;;19.10;99.90;;;;;;5031749;28;20484;-80
2022/09/05 01:03:25;;;;;;;0.50;0.30;;;19.00;99.90;;;;;;5032387;28;20521;-79
2022/09/05 01:06:17;;;;;;;0.50;0.40;;;18.90;99.90;;;;;;5031560;28;20501;-80
2022/09/05 01:09:20;;;;;;;0.50;0.30;;;18.90;99.90;;;;;;5027112;28;20450;-78
2022/09/05 01:12:06;;;;;;;0.50;0.30;;;18.80;99.90;;;;;;5032342;28;20859;-78
2022/09/05 01:14:50;;;;;;;0.50;0.40;;;18.80;99.90;;;;;;5030895;28;20470;-78
2022/09/05 01:17:43;;;;;;;0.50;0.30;;;18.70;99.90;;;;;;5032236;28;20414;-78
2022/09/05 01:20:27;;;;;;;0.50;0.30;;;18.60;99.90;;;;;;5029460;28;20584;-79
2022/09/05 01:23:28;;;;;;;0.50;0.40;;;18.50;99.90;;;;;;5031919;28;20438;-78
2022/09/05 01:26:28;;;;;;;0.50;0.30;;;18.50;99.90;;;;;;5031864;28;20461;-78
2022/09/05 01:29:02;;;;;;;0.50;0.30;;;18.50;99.90;;;;;;5031573;28;20441;-77
2022/09/05 01:31:37;;;;;;;0.50;0.30;;;18.40;99.90;;;;;;5031994;28;20501;-78
2022/09/05 01:34:12;;;;;;;0.50;0.30;;;18.40;99.90;;;;;;5033004;28;20516;-78
2022/09/05 01:36:53;;;;;;;0.50;0.40;;;18.30;99.90;;;;;;5032750;28;20858;-78
2022/09/05 01:39:29;;;;;;;0.50;0.40;;;18.30;99.90;;;;;;5031610;28;20548;-79
2022/09/05 01:42:04;;;;;;;0.50;0.30;;;18.30;99.90;;;;;;5031191;28;21134;-78
2022/09/05 01:44:49;;;;;;;0.50;0.30;;;18.30;99.90;;;;;;5031070;28;20465;-77
2022/09/05 01:47:34;;;;;;;0.50;0.30;;;18.30;99.90;;;;;;5031849;28;20466;-78
2022/09/05 01:50:12;;;;;;;0.50;0.33;;;18.30;99.90;;;;;;5033232;28;20426;-79
2022/09/05 01:52:53;;;;;;;0.50;0.30;;;18.30;99.90;;;;;;5032259;28;20902;-79
2022/09/05 01:55:31;;;;;;;0.50;0.40;;;18.30;99.90;;;;;;5031362;28;20545;-79
2022/09/05 01:58:09;;;;;;;0.50;0.30;;;18.40;99.90;;;;;;5032173;28;20445;-78
2022/09/05 02:00:45;;;;;;;0.50;0.40;;;18.30;99.90;;;;;;5033340;28;20583;-79
2022/09/05 02:03:21;;;;;;;0.50;0.40;;;18.20;99.90;;;;;;5036192;28;20544;-77
2022/09/05 02:06:11;;;;;;;0.50;0.30;;;18.10;99.90;;;;;;5035377;28;20541;-80
2022/09/05 02:09:05;;;;;;;0.50;0.40;;;18.10;99.90;;;;;;5035559;28;20985;-79
2022/09/05 02:11:43;;;;;;;0.50;0.30;;;18.00;99.90;;;;;;5028330;28;20441;-80
2022/09/05 02:14:21;;;;;;;0.50;0.33;;;18.00;99.90;;;;;;5035020;28;21043;-80
2022/09/05 02:16:52;;;;;;;0.50;0.30;;;17.90;99.90;;;;;;5036028;28;20985;-80
2022/09/05 02:19:25;;;;;;;0.50;0.40;;;17.90;99.90;;;;;;5035948;28;20425;-78
2022/09/05 02:22:01;;;;;;;0.50;0.30;;;17.90;99.90;;;;;;5035237;28;20788;-80
2022/09/05 02:24:35;;;;;;;0.50;0.33;;;17.90;99.90;;;;;;5035352;28;20489;-80
2022/09/05 02:27:18;;;;;;;0.50;0.30;;;17.90;99.90;;;;;;5035213;28;20531;-76
2022/09/05 02:29:55;;;;;;;0.50;0.40;;;17.90;99.90;;;;;;5035992;28;20536;-79
2022/09/05 02:32:27;;;;;;;0.50;0.30;;;17.80;99.90;;;;;;5035863;28;20813;-79
2022/09/05 02:35:00;;;;;;;0.50;0.30;;;17.80;99.90;;;;;;5035420;28;20504;-79
2022/09/05 02:37:36;;;;;;;0.50;0.30;;;17.70;99.90;;;;;;5035380;28;20804;-80
2022/09/05 02:40:12;;;;;;;0.50;0.40;;;17.70;99.90;;;;;;5036250;28;20827;-79
2022/09/05 02:42:47;;;;;;;0.50;0.40;;;17.60;99.90;;;;;;5035334;28;20548;-77
2022/09/05 02:45:22;;;;;;;0.50;0.30;;;17.60;99.90;;;;;;5034854;28;20476;-76
2022/09/05 02:47:59;;;;;;;0.50;0.30;;;17.60;99.90;;;;;;5034719;28;20788;-79
2022/09/05 02:50:38;;;;;;;0.50;0.30;;;17.50;99.90;;;;;;5035154;28;20868;-78
2022/09/05 02:53:08;;;;;;;0.50;0.30;;;17.50;99.90;;;;;;5034885;28;20856;-79
2022/09/05 02:56:03;;;;;;;0.50;0.30;;;17.50;99.90;;;;;;5034919;28;20987;-80
2022/09/05 02:58:44;;;;;;;0.50;0.30;;;17.50;99.90;;;;;;5037866;28;20808;-80
2022/09/05 03:01:18;;;;;;;1.67;1.33;;;17.50;99.90;;;;;;5037591;28;20552;-79
2022/09/05 03:03:55;;;;;;;0.50;0.30;;;17.60;99.90;;;;;;5036155;28;20466;-78
2022/09/05 03:06:32;;;;;;;0.50;0.30;;;17.60;99.90;;;;;;5034778;28;20545;-79
2022/09/05 03:09:16;;;;;;;0.50;0.40;;;17.60;99.90;;;;;;5035530;28;20521;-78
2022/09/05 03:12:27;;;;;;;0.50;0.30;;;17.60;99.90;;;;;;5033672;28;20426;-79
2022/09/05 03:15:36;;;;;;;0.50;0.30;;;17.60;99.90;;;;;;5033486;28;20915;-78
2022/09/05 03:18:47;;;;;;;0.60;0.60;;;17.60;99.90;;;;;;5034574;28;20811;-78
2022/09/05 03:21:48;;;;;;;0.50;0.30;;;17.70;99.90;;;;;;5034103;28;21014;-80
2022/09/05 03:24:40;;;;;;;0.50;0.30;;;17.70;99.90;;;;;;5033935;28;20875;-80
2022/09/05 03:27:52;;;;;;;0.50;0.30;;;17.80;99.90;;;;;;5034185;28;20513;-80
2022/09/05 03:30:20;;;;;;;0.50;0.30;;;17.70;99.90;;;;;;4972716;28;21288;-78
2022/09/05 03:33:20;;;;;;;0.50;0.30;;;17.70;99.90;;;;;;5026397;28;20549;-77
2022/09/05 03:36:26;;;;;;;0.50;0.30;;;17.70;99.90;;;;;;5033957;28;20476;-80
2022/09/05 03:39:19;;;;;;;0.50;0.30;;;17.60;99.90;;;;;;4978031;28;20540;-78
2022/09/05 03:42:24;;;;;;;0.50;0.30;;;17.70;99.90;;;;;;5034342;28;21074;-80
2022/09/05 03:45:16;;;;;;;0.50;0.40;;;17.70;99.90;;;;;;5008103;28;20524;-80
2022/09/05 03:48:06;;;;;;;0.50;0.40;;;17.60;99.90;;;;;;5035935;28;20477;-79
2022/09/05 03:50:37;;;;;;;0.50;0.40;;;17.60;99.90;;;;;;5033985;28;20414;-78
2022/09/05 03:53:41;;;;;;;0.50;0.30;;;17.50;99.90;;;;;;5033837;28;20434;-79
2022/09/05 03:56:28;;;;;;;0.50;0.40;;;17.50;99.90;;;;;;5009840;28;20470;-78
2022/09/05 03:59:30;;;;;;;0.50;0.33;;;17.50;99.90;;;;;;5033703;28;20929;-79
2022/09/05 04:02:03;;;;;;;0.50;0.30;;;17.50;99.90;;;;;;5033480;28;20910;-79
2022/09/05 04:04:34;;;;;;;0.50;0.30;;;17.50;99.90;;;;;;5033267;28;20491;-80
2022/09/05 04:07:04;;;;;;;0.50;0.30;;;17.50;99.90;;;;;;5034126;28;20450;-78
2022/09/05 04:09:39;;;;;;;0.50;0.40;;;17.50;99.90;;;;;;5037493;28;20613;-77
2022/09/05 04:12:14;;;;;;;0.50;0.30;;;17.40;99.90;;;;;;5044398;28;20445;-79
2022/09/05 04:14:48;;;;;;;0.50;0.40;;;17.30;99.90;;;;;;5042617;28;20460;-78
2022/09/05 04:17:25;;;;;;;0.50;0.40;;;17.30;99.90;;;;;;5052733;28;20460;-76
2022/09/05 04:19:58;;;;;;;0.50;0.30;;;17.30;99.90;;;;;;5052284;28;20425;-79
2022/09/05 04:22:34;;;;;;;0.50;0.40;;;17.20;99.90;;;;;;5052523;28;20835;-79
2022/09/05 04:25:07;;;;;;;0.50;0.33;;;17.20;99.90;;;;;;5051076;28;20539;-75
2022/09/05 04:27:46;;;;;;;0.50;0.40;;;17.10;99.90;;;;;;5052861;28;20440;-78
2022/09/05 04:30:31;;;;;;;0.50;0.30;;;17.20;99.90;;;;;;5052533;28;20500;-78
2022/09/05 04:33:04;;;;;;;0.50;0.30;;;17.10;99.90;;;;;;5052735;28;20448;-78
2022/09/05 04:35:37;;;;;;;0.50;0.40;;;17.10;99.90;;;;;;5052425;28;20557;-80
2022/09/05 04:38:13;;;;;;;0.50;0.33;;;17.20;99.90;;;;;;5053378;28;20437;-76
2022/09/05 04:40:59;;;;;;;0.50;0.40;;;17.10;99.90;;;;;;5052243;28;20477;-77
2022/09/05 04:43:34;;;;;;;0.50;0.40;;;17.10;99.90;;;;;;5052186;28;20946;-79
2022/09/05 04:46:13;;;;;;;0.50;0.40;;;17.10;99.90;;;;;;5051774;28;20545;-78
2022/09/05 04:48:46;;;;;;;0.50;0.40;;;17.00;99.90;;;;;;5053173;28;20441;-79
2022/09/05 04:51:42;;;;;;;0.50;0.30;;;17.00;99.90;;;;;;5052706;28;20459;-78
2022/09/05 04:54:26;;;;;;;0.50;0.30;;;17.00;99.90;;;;;;5052664;28;20667;-77
2022/09/05 04:56:58;;;;;;;0.50;0.30;;;17.00;99.90;;;;;;5052577;28;20962;-77
2022/09/05 04:59:31;;;;;;;0.50;0.40;;;16.90;99.90;;;;;;5052243;28;20788;-78
2022/09/05 05:02:02;;;;;;;0.50;0.30;;;16.90;99.90;;;;;;5052382;28;20465;-77
2022/09/05 05:04:30;;;;;;;0.50;0.30;;;16.90;99.90;;;;;;5051952;28;21006;-77
2022/09/05 05:07:06;;;;;;;0.50;0.30;;;16.90;99.90;;;;;;5052319;28;20564;-77
2022/09/05 05:09:39;;;;;;;0.50;0.30;;;16.90;99.90;;;;;;5052073;28;20528;-76
2022/09/05 05:12:16;;;;;;;0.50;0.30;;;16.90;99.90;;;;;;5055258;28;20436;-76
2022/09/05 05:14:49;;;;;;;0.50;0.30;;;16.90;99.90;;;;;;5054676;28;20456;-77
2022/09/05 05:17:27;;;;;;;0.50;0.40;;;17.00;99.90;;;;;;5053926;28;20429;-76
2022/09/05 05:20:00;;;;;;;0.50;0.30;;;17.00;99.90;;;;;;5052479;28;20516;-77
2022/09/05 05:22:27;;;;;;;0.50;0.37;;;17.00;99.90;;;;;;5051398;28;20435;-77
2022/09/05 05:24:56;;;;;;;0.50;0.30;;;17.10;99.90;;;;;;5052765;28;20974;-77
2022/09/05 05:27:28;;;;;;;0.60;0.50;;;17.10;99.90;;;;;;5051821;28;20440;-78
2022/09/05 05:30:03;;;;;;;0.50;0.40;;;17.10;99.90;;;;;;5052112;28;20517;-77
2022/09/05 05:32:33;;;;;;;0.50;0.30;;;17.10;99.90;;;;;;5051877;28;20421;-77
2022/09/05 05:35:07;;;;;;;0.50;0.40;;;17.10;99.90;;;;;;5051447;28;20461;-77
2022/09/05 05:37:41;;;;;;;0.50;0.30;;;17.10;99.90;;;;;;5051672;28;20955;-78
2022/09/05 05:40:16;;;;;;;0.50;0.30;;;17.10;99.90;;;;;;5051877;28;20425;-73
2022/09/05 05:42:45;;;;;;;0.50;0.30;;;17.20;99.90;;;;;;5051575;28;20519;-77
2022/09/05 05:45:18;;;;;;;0.50;0.30;;;17.30;99.90;;;;;;5051097;28;20547;-77
2022/09/05 05:47:49;;;;;;;0.50;0.30;;;17.40;99.90;;;;;;5051468;28;20472;-75
2022/09/05 05:50:32;;;;;;;0.50;0.40;;;17.40;99.90;;;;;;5051783;28;20421;-79
2022/09/05 05:53:25;;;;;;;0.50;0.40;;;17.60;99.90;;;;;;5051286;28;20455;-77
2022/09/05 05:56:11;;;;;;;0.50;0.40;;;17.90;99.90;;;;;;5051022;28;21029;-77
2022/09/05 05:59:03;;;;;;;46.67;38.43;;;18.70;99.90;;;;;;5051366;28;20532;-77
2022/09/05 06:02:05;;;;;;;0.50;0.30;;;20.10;99.90;;;;;;5050916;28;20568;-78
2022/09/05 06:05:20;;;;;;;0.50;0.30;;;21.90;99.90;;;;;;5026427;28;20481;-78
2022/09/05 06:08:01;;;;;;;0.50;0.30;;;23.50;99.90;;;;;;5051313;28;20475;-77
2022/09/05 06:10:59;;;;;;;0.50;0.30;;;25.00;99.90;;;;;;5050902;28;20504;-76
2022/09/05 06:14:08;;;;;;;0.50;0.30;;;26.70;99.90;;;;;;5051423;28;20528;-78
2022/09/05 06:16:54;;;;;;;0.50;0.30;;;28.40;99.90;;;;;;5051759;28;20863;-77
2022/09/05 06:19:53;;;;;;;0.50;0.30;;;29.80;99.90;;;;;;5051412;28;20874;-77
2022/09/05 06:22:59;;;;;;;0.50;0.30;;;31.00;97.50;;;;;;5051594;28;20492;-78
2022/09/05 06:26:02;;;;;;;0.50;0.30;;;32.00;90.80;;;;;;5050784;28;20464;-78
2022/09/05 06:28:45;;;;;;;0.50;0.30;;;32.90;84.20;;;;;;5051668;28;20500;-78
2022/09/05 06:31:27;;;;;;;0.50;0.30;;;33.30;76.30;;;;;;5051567;28;20847;-77
2022/09/05 06:34:07;;;;;;;0.50;0.40;;;33.70;71.90;;;;;;5051542;28;20527;-78
2022/09/05 06:36:47;;;;;;;0.50;0.30;;;34.00;70.20;;;;;;5051703;28;20457;-77
2022/09/05 06:39:23;;;;;;;0.50;0.30;;;34.20;68.40;;;;;;5051243;28;20527;-79
2022/09/05 06:42:12;;;;;;;0.50;0.30;;;34.60;67.10;;;;;;5051146;28;20540;-79
2022/09/05 06:45:05;;;;;;;0.50;0.30;;;34.60;65.60;;;;;;5050943;28;20507;-78
2022/09/05 06:47:37;;;;;;;0.50;0.30;;;35.10;64.50;;;;;;5052717;28;20433;-78
2022/09/05 06:50:10;;;;;;;0.50;0.30;;;35.50;63.50;;;;;;5055599;28;20453;-78
2022/09/05 06:53:10;;;;;;;0.50;0.33;;;36.00;63.70;;;;;;5056406;28;20480;-80
2022/09/05 06:55:58;;;;;;;0.50;0.30;;;36.70;62.20;;;;;;5058957;28;20571;-80
2022/09/05 06:59:25;;;;;;;0.50;0.30;;;37.50;59.50;;;;;;5059496;28;20994;-80
2022/09/05 07:01:58;;;;;;;0.50;0.40;;;38.50;57.20;;;;;;5056241;28;20560;-78
2022/09/05 07:04:34;;;;;;;0.40;0.30;;;39.30;57.10;;;;;;5057280;28;20898;-75
2022/09/05 07:07:12;;;;;;;0.50;0.30;;;39.60;55.70;;;;;;5044075;28;20958;-77
2022/09/05 07:09:57;;;;;;;0.40;0.30;;;40.00;54.50;;;;;;5052117;28;20451;-76
2022/09/05 07:12:29;;;;;;;0.40;0.30;;;40.50;53.00;;;;;;5054339;28;20442;-75
2022/09/05 07:15:11;;;;;;;0.40;0.30;;;40.60;50.40;;;;;;5054240;28;20524;-75
2022/09/05 07:17:48;;;;;;;0.40;0.40;;;41.10;50.50;;;;;;5054422;28;20911;-78
2022/09/05 07:20:22;;;;;;;0.40;0.30;;;41.60;49.60;;;;;;5054116;28;20428;-78
2022/09/05 07:22:56;;;;;;;0.40;0.30;;;42.00;49.10;;;;;;5053876;28;20483;-76
2022/09/05 07:25:27;;;;;;;0.40;0.30;;;42.00;47.30;;;;;;5054172;28;20911;-77
2022/09/05 07:27:59;;;;;;;0.40;0.30;;;42.30;47.10;;;;;;5054220;28;20418;-78
2022/09/05 07:30:27;;;;;;;0.40;0.30;;;42.50;45.90;;;;;;5054427;28;20417;-77
2022/09/05 07:32:56;;;;;;;0.40;0.30;;;42.80;45.00;;;;;;5053400;28;20437;-77
2022/09/05 07:35:28;;;;;;;0.40;0.30;;;43.10;44.90;;;;;;5053756;28;20979;-78
2022/09/05 07:38:04;;;;;;;0.40;0.30;;;43.30;43.80;;;;;;5054139;28;20492;-77
2022/09/05 07:40:36;;;;;;;0.40;0.30;;;43.20;42.90;;;;;;5054209;28;20921;-77
2022/09/05 07:43:07;;;;;;;0.73;0.73;;;43.70;43.20;;;;;;5054610;28;20492;-77
2022/09/05 07:45:38;;;;;;;0.40;0.30;;;43.50;41.70;;;;;;5055073;28;20501;-77
2022/09/05 07:48:10;;;;;;;0.40;0.30;;;43.20;42.60;;;;;;5041440;28;20513;-78
2022/09/05 07:50:49;;;;;;;0.40;0.30;;;43.40;42.00;;;;;;5035744;28;20444;-77
2022/09/05 07:53:17;;;;;;;0.40;0.30;;;43.10;41.30;;;;;;5033619;28;20537;-76
2022/09/05 07:55:50;;;;;;;0.40;0.30;;;42.90;41.60;;;;;;5032731;28;20493;-78
2022/09/05 07:58:20;;;;;;;0.40;0.30;;;42.90;41.60;;;;;;5033231;28;20451;-77
2022/09/05 08:00:52;;;;;;;0.40;0.30;;;43.10;42.40;;;;;;5033106;28;20481;-78
2022/09/05 08:03:25;;;;;;;0.50;0.40;;;43.80;42.10;;;;;;5032978;28;20964;-78
2022/09/05 08:05:54;;;;;;;0.40;0.20;;;43.60;41.80;;;;;;5032618;28;20497;-76
2022/09/05 08:08:24;;;;;;;0.40;0.30;;;44.30;40.90;;;;;;5039550;28;20460;-79
2022/09/05 08:10:54;;;;;;;0.40;0.30;;;44.90;41.00;;;;;;5053268;28;20491;-78
2022/09/05 08:13:29;;;;;;;0.40;0.30;;;45.20;39.50;;;;;;5053125;28;20480;-77
2022/09/05 08:15:59;;;;;;;0.40;0.30;;;45.20;39.20;;;;;;5052774;28;20514;-79
2022/09/05 08:18:35;;;;;;;0.40;0.30;;;45.50;38.30;;;;;;5052607;28;20493;-77
2022/09/05 08:21:09;;;;;;;0.40;0.40;;;45.80;38.70;;;;;;5053262;28;20464;-78
2022/09/05 08:23:50;;;;;;;0.40;0.30;;;45.20;37.70;;;;;;5052722;28;20468;-77
2022/09/05 08:26:28;;;;;;;0.40;0.30;;;43.20;39.00;;;;;;5052499;28;20899;-78
2022/09/05 08:29:03;;;;;;;2.03;1.73;;;42.80;40.20;;;;;;5052551;28;20425;-78
2022/09/05 08:31:36;;;;;;;0.50;0.40;;;42.80;39.70;;;;;;5051666;28;20524;-77
2022/09/05 08:34:08;;;;;;;0.40;0.30;;;43.20;40.20;;;;;;5050270;28;20945;-77
2022/09/05 08:36:40;;;;;;;0.40;0.30;;;44.00;40.00;;;;;;5052716;28;20524;-78
2022/09/05 08:39:10;;;;;;;0.40;0.30;;;44.50;39.40;;;;;;5051847;28;20516;-77
2022/09/05 08:41:49;;;;;;;0.40;0.30;;;44.70;39.30;;;;;;5052355;28;20457;-77
2022/09/05 08:44:24;;;;;;;0.40;0.40;;;45.10;38.90;;;;;;5051045;28;20431;-78
2022/09/05 08:46:54;;;;;;;0.40;0.20;;;45.30;38.50;;;;;;5051591;28;20479;-78
2022/09/05 08:49:54;;;;;;;0.40;0.30;;;45.20;38.10;;;;;;5051881;28;20426;-76
2022/09/05 08:52:30;;;;;;;0.40;0.30;;;44.10;38.80;;;;;;5051538;28;20471;-77
2022/09/05 08:55:12;;;;;;;0.40;0.30;;;43.50;40.10;;;;;;5051392;28;20464;-78
2022/09/05 08:58:19;;;;;;;0.40;0.30;;;44.30;40.30;;;;;;5051415;28;20520;-77
2022/09/05 09:00:54;;;;;;;0.40;0.30;;;45.10;39.60;;;;;;5051164;28;20528;-78
2022/09/05 09:03:28;;;;;;;0.40;0.30;;;45.20;39.40;;;;;;5051865;28;20547;-77
2022/09/05 09:06:22;;;;;;;0.40;0.30;;;45.70;37.90;;;;;;5051354;28;20638;-77
2022/09/05 09:09:04;;;;;;;0.40;0.30;;;44.10;38.30;;;;;;5051816;28;20847;-77
2022/09/05 09:11:34;;;;;;;0.40;0.30;;;43.80;39.40;;;;;;5051218;28;20509;-77
2022/09/05 09:14:38;;;;;;;0.53;0.53;;;44.20;38.40;;;;;;5051072;28;20443;-77
2022/09/05 09:17:23;;;;;;;0.40;0.30;;;43.00;38.40;;;;;;4969914;28;20445;-74
2022/09/05 09:19:56;;;;;;;0.40;0.30;;;43.50;37.80;;;;;;4970542;28;21030;-75
2022/09/05 09:22:40;;;;;;;0.40;0.30;;;43.90;38.20;;;;;;5020970;28;20559;-78
2022/09/05 09:25:11;;;;;;;0.40;0.30;;;43.60;37.50;;;;;;5050765;28;20556;-78
2022/09/05 09:27:53;;;;;;;0.40;0.30;;;43.90;38.00;;;;;;5051461;28;20433;-76
2022/09/05 09:30:20;;;;;;;0.40;0.30;;;44.50;37.10;;;;;;5051922;28;20662;-78
2022/09/05 09:32:50;;;;;;;0.40;0.30;;;44.90;36.70;;;;;;5051953;28;20469;-79
2022/09/05 09:35:23;;;;;;;0.40;0.30;;;45.30;37.20;;;;;;5051246;28;20767;-78
2022/09/05 09:38:28;;;;;;;1.37;0.40;;;45.70;35.00;;;;;;5052166;28;20464;-79
2022/09/05 09:41:29;;;;;;;0.40;0.30;;;45.10;34.20;;;;;;5051881;28;20468;-78
2022/09/05 09:44:47;;;;;;;0.40;0.30;;;44.90;36.00;;;;;;5051425;28;20483;-77
2022/09/05 09:47:21;;;;;;;0.50;0.47;;;44.90;36.40;;;;;;5051851;28;20445;-77
2022/09/05 09:50:17;;;;;;;0.40;0.30;;;45.40;35.10;;;;;;5051595;28;20537;-77
2022/09/05 09:53:01;;;;;;;0.40;0.30;;;44.80;36.00;;;;;;5051963;28;20808;-79
2022/09/05 09:56:04;;;;;;;1.23;0.93;;;45.60;35.20;;;;;;5051352;28;20552;-79
2022/09/05 09:58:55;;;;;;;0.40;0.30;;;45.80;33.90;;;;;;5051481;28;20480;-78
2022/09/05 10:01:32;;;;;;;0.40;0.30;;;45.20;34.60;;;;;;5051624;28;20445;-78
2022/09/05 10:04:32;;;;;;;0.40;0.30;;;45.60;34.80;;;;;;5051522;28;20539;-79
2022/09/05 10:07:21;;;;;;;0.40;0.40;;;45.30;34.40;;;;;;5050709;28;20521;-77
2022/09/05 10:10:09;;;;;;;0.40;0.30;;;44.20;35.40;;;;;;5051381;28;20434;-78
2022/09/05 10:13:11;;;;;;;0.40;0.30;;;43.40;35.30;;;;;;5051423;28;20810;-78
2022/09/05 10:15:59;;;;;;;0.97;0.60;;;43.20;35.30;;;;;;5050393;28;20495;-76
2022/09/05 10:18:39;;;;;;;0.40;0.30;;;43.10;35.90;;;;;;5051724;28;20441;-78
2022/09/05 10:21:33;;;;;;;0.40;0.40;;;41.90;35.60;;;;;;5051647;28;20456;-78
2022/09/05 10:24:30;;;;;;;0.40;0.30;;;41.80;36.90;;;;;;5053856;28;20417;-78
2022/09/05 10:27:29;;;;;;;0.40;0.30;;;41.80;36.60;;;;;;5055245;28;20519;-78
2022/09/05 10:30:10;;;;;;;0.40;0.30;;;42.60;36.50;;;;;;5054824;28;20531;-78
2022/09/05 10:32:57;;;;;;;0.40;0.30;;;42.00;36.30;;;;;;5055232;28;20536;-77
2022/09/05 10:35:29;;;;;;;0.90;0.90;;;41.60;36.10;;;;;;5054716;28;20987;-77
2022/09/05 10:38:02;;;;;;;0.40;0.30;;;40.10;36.90;;;;;;5055258;28;20481;-77
2022/09/05 10:40:35;;;;;;;0.40;0.30;;;39.30;37.50;;;;;;5054885;28;20435;-77
2022/09/05 10:43:09;;;;;;;0.40;0.30;;;38.50;39.00;;;;;;5055083;28;20514;-78
2022/09/05 10:45:47;;;;;;;0.47;0.43;;;37.90;40.10;;;;;;5053678;28;20495;-77
2022/09/05 10:48:22;;;;;;;0.40;0.30;;;37.70;41.20;;;;;;5054729;28;20873;-78
2022/09/05 10:50:59;;;;;;;0.40;0.30;;;38.20;40.80;;;;;;5054967;28;20973;-78
2022/09/05 10:53:32;;;;;;;0.40;0.30;;;38.70;41.10;;;;;;5054444;28;20436;-78
2022/09/05 10:56:08;;;;;;;0.40;0.30;;;39.80;39.30;;;;;;5054251;28;20540;-77
2022/09/05 10:59:00;;;;;;;0.40;0.30;;;39.90;38.60;;;;;;5054738;28;20425;-77
2022/09/05 11:01:33;;;;;;;0.60;0.60;;;39.60;40.00;;;;;;5054901;28;20429;-78
2022/09/05 11:04:12;;;;;;;0.40;0.30;;;40.10;38.70;;;;;;5054381;28;20469;-78
2022/09/05 11:06:57;;;;;;;0.40;0.30;;;39.80;38.90;;;;;;5054523;28;20520;-78
2022/09/05 11:09:37;;;;;;;0.40;0.30;;;39.50;39.50;;;;;;5053731;28;20451;-76
2022/09/05 11:12:18;;;;;;;0.67;0.67;;;39.50;39.20;;;;;;5054525;28;20532;-77
2022/09/05 11:14:51;;;;;;;0.40;0.30;;;40.20;38.50;;;;;;5055228;28;20539;-77
2022/09/05 11:17:29;;;;;;;0.40;0.30;;;40.60;38.60;;;;;;5054445;28;20422;-78
2022/09/05 11:20:08;;;;;;;0.60;0.60;;;41.40;38.50;;;;;;5054712;28;20441;-77
2022/09/05 11:22:40;;;;;;;0.40;0.30;;;41.20;37.30;;;;;;5055223;28;20461;-78
2022/09/05 11:25:14;;;;;;;0.40;0.30;;;40.90;37.40;;;;;;5054868;28;20462;-76
2022/09/05 11:27:45;;;;;;;0.40;0.30;;;41.20;37.60;;;;;;5054278;28;20934;-78
2022/09/05 11:30:16;;;;;;;0.40;0.30;;;41.50;37.20;;;;;;5053153;28;20504;-75
2022/09/05 11:33:16;;;;;;;0.40;0.30;;;42.40;36.80;;;;;;5053949;28;20894;-78
2022/09/05 11:35:48;;;;;;;0.40;0.30;;;42.40;36.80;;;;;;5053432;28;20499;-78
2022/09/05 11:38:49;;;;;;;0.40;0.30;;;43.20;36.60;;;;;;5053630;28;20540;-77
2022/09/05 11:41:58;;;;;;;0.40;0.30;;;43.50;36.00;;;;;;5002138;28;20433;-78
2022/09/05 11:44:30;;;;;;;0.43;0.33;;;43.80;36.00;;;;;;5051851;28;20920;-78
2022/09/05 11:47:17;;;;;;;0.70;0.70;;;43.90;35.20;;;;;;5053628;28;20433;-78
2022/09/05 11:50:05;;;;;;;0.40;0.30;;;43.10;35.50;;;;;;5053652;28;20480;-77
2022/09/05 11:53:20;;;;;;;0.50;0.50;;;43.50;36.30;;;;;;5052940;28;20512;-78
2022/09/05 11:56:23;;;;;;;0.40;0.30;;;43.00;35.30;;;;;;5053176;28;20452;-78
2022/09/05 11:59:26;;;;;;;0.40;0.30;;;41.30;36.90;;;;;;5042913;28;20519;-77
2022/09/05 12:02:16;;;;;;;0.40;0.30;;;41.00;37.30;;;;;;5053395;28;20508;-79
2022/09/05 12:04:50;;;;;;;0.40;0.30;;;40.20;37.90;;;;;;5054072;28;20528;-78
2022/09/05 12:07:42;;;;;;;0.40;0.30;;;39.90;37.80;;;;;;5054288;28;20425;-78
2022/09/05 12:10:25;;;;;;;3.50;0.40;;;40.40;38.30;;;;;;5054024;28;20426;-78
2022/09/05 12:13:07;;;;;;;0.40;0.30;;;39.70;38.80;;;;;;5054238;28;20552;-77
2022/09/05 12:15:36;;;;;;;0.40;0.30;;;40.50;37.90;;;;;;5053036;28;20469;-79
2022/09/05 12:18:24;;;;;;;0.40;0.30;;;40.70;37.70;;;;;;5053899;28;20449;-79
2022/09/05 12:20:58;;;;;;;0.40;0.30;;;40.40;37.80;;;;;;5053967;28;20425;-79
2022/09/05 12:23:33;;;;;;;0.40;0.30;;;40.60;37.30;;;;;;5053743;28;20547;-79
2022/09/05 12:26:08;;;;;;;0.40;0.30;;;40.60;37.60;;;;;;5053222;28;20553;-79
2022/09/05 12:28:41;;;;;;;0.40;0.30;;;40.20;37.80;;;;;;5053912;28;20456;-79
2022/09/05 12:31:17;;;;;;;0.60;0.50;;;40.00;37.80;;;;;;5054257;28;20422;-79
2022/09/05 12:33:50;;;;;;;0.40;0.30;;;40.00;37.50;;;;;;5053641;28;20413;-78
2022/09/05 12:36:30;;;;;;;0.40;0.30;;;40.50;38.40;;;;;;5053423;28;20461;-78
2022/09/05 12:39:13;;;;;;;0.40;0.30;;;41.10;37.90;;;;;;5053046;28;20437;-75
2022/09/05 12:41:49;;;;;;;0.40;0.30;;;41.90;37.20;;;;;;5055311;28;20437;-78
2022/09/05 12:44:30;;;;;;;0.40;0.30;;;43.00;35.90;;;;;;5053177;28;20470;-78
2022/09/05 12:47:02;;;;;;;0.40;0.30;;;41.50;35.60;;;;;;5053909;28;20457;-79
2022/09/05 12:49:36;;;;;;;0.40;0.40;;;42.00;36.40;;;;;;5053028;28;20924;-78
2022/09/05 12:52:06;;;;;;;0.40;0.30;;;42.70;35.60;;;;;;5053402;28;20952;-78
2022/09/05 12:54:41;;;;;;;0.40;0.30;;;42.10;35.50;;;;;;5052800;28;20529;-78
2022/09/05 12:57:16;;;;;;;0.40;0.30;;;41.60;36.50;;;;;;5053140;28;20425;-75
2022/09/05 12:59:46;;;;;;;0.40;0.30;;;41.30;35.90;;;;;;5053517;28;20520;-78
2022/09/05 13:02:19;;;;;;;0.40;0.30;;;42.00;36.50;;;;;;5053440;28;20425;-79
2022/09/05 13:04:56;;;;;;;0.40;0.30;;;42.00;35.80;;;;;;5053644;28;20532;-79
2022/09/05 13:07:28;;;;;;;0.40;0.30;;;42.70;36.20;;;;;;5055647;28;20471;-79
2022/09/05 13:09:59;;;;;;;0.50;0.40;;;41.60;35.60;;;;;;5056072;28;20516;-79
2022/09/05 13:12:29;;;;;;;0.50;0.40;;;41.30;36.30;;;;;;5054183;28;20532;-79
2022/09/05 13:15:04;;;;;;;0.50;0.50;;;41.00;36.30;;;;;;5053234;28;20453;-79
2022/09/05 13:17:37;;;;;;;1.03;1.03;;;39.70;36.60;;;;;;5053779;28;20850;-79
2022/09/05 13:20:15;;;;;;;0.40;0.30;;;40.00;37.20;;;;;;5054694;28;20799;-79
2022/09/05 13:22:45;;;;;;;0.90;0.90;;;39.10;36.70;;;;;;5053378;28;20445;-79
2022/09/05 13:25:17;;;;;;;0.40;0.30;;;38.80;37.40;;;;;;5053602;28;20456;-78
2022/09/05 13:27:55;;;;;;;0.50;0.40;;;38.60;37.90;;;;;;5052518;28;20441;-80
2022/09/05 13:30:24;;;;;;;0.40;0.30;;;38.90;38.10;;;;;;5056378;28;20425;-81
2022/09/05 13:32:53;;;;;;;0.40;0.30;;;38.80;37.70;;;;;;5052964;28;20437;-78
2022/09/05 13:35:25;;;;;;;0.60;0.50;;;38.80;38.00;;;;;;5052179;28;20544;-78
2022/09/05 13:38:05;;;;;;;0.80;0.80;;;39.10;37.90;;;;;;5052286;28;20495;-78
2022/09/05 13:40:37;;;;;;;0.40;0.30;;;39.00;38.10;;;;;;5052778;28;20849;-78
2022/09/05 13:43:08;;;;;;;0.40;0.30;;;38.80;38.40;;;;;;5052703;28;20461;-79
2022/09/05 13:45:50;;;;;;;0.40;0.30;;;39.40;38.40;;;;;;5051614;28;20465;-78
2022/09/05 13:48:35;;;;;;;0.40;0.30;;;39.20;37.50;;;;;;5053046;28;20860;-79
2022/09/05 13:51:26;;;;;;;0.40;0.30;;;38.60;37.50;;;;;;5052908;28;20529;-79
2022/09/05 13:54:10;;;;;;;0.40;0.30;;;38.00;38.30;;;;;;5053609;28;20441;-78
2022/09/05 13:56:46;;;;;;;0.40;0.30;;;38.00;38.60;;;;;;5053346;28;20524;-79